createdAt,value
2023-05-16T00:07:11.814Z,5.6
2023-05-16T00:22:45.868Z,6.7
2023-05-16T00:38:19.950Z,6.2
2023-05-16T00:53:53.983Z,7.3
2023-05-16T01:09:28.020Z,7.1
2023-05-16T01:25:02.167Z,6.8
2023-05-16T01:40:36.208Z,7.9
2023-05-16T01:56:10.240Z,8.7
2023-05-16T02:11:44.309Z,11.4
2023-05-16T02:27:18.331Z,11.3
2023-05-16T02:42:52.363Z,11.5
2023-05-16T02:58:26.499Z,13.6
2023-05-16T03:14:01.656Z,15.3
2023-05-16T03:29:36.071Z,16.7
2023-05-16T03:45:09.933Z,15.1
2023-05-16T04:00:44.001Z,13.9
2023-05-16T04:16:18.071Z,14.7
2023-05-16T04:31:52.702Z,12.1
2023-05-16T04:47:27.219Z,12.5
2023-05-16T05:03:01.729Z,11
2023-05-16T05:18:36.224Z,8.9
2023-05-16T05:34:10.886Z,9
2023-05-16T05:49:44.909Z,7
2023-05-16T06:05:19.199Z,7.1
2023-05-16T06:20:53.413Z,6.6
2023-05-16T06:36:27.501Z,6
2023-05-16T06:52:01.563Z,6.5
2023-05-16T07:07:35.950Z,6.5
2023-05-16T07:23:10.446Z,6
2023-05-16T07:38:44.667Z,5
2023-05-16T07:54:19.008Z,5.1
2023-05-16T08:09:53.207Z,4.9
2023-05-16T08:25:27.478Z,4.8
2023-05-16T08:41:02.787Z,5
2023-05-16T08:56:37.285Z,4.8
2023-05-16T09:12:11.857Z,3.6
2023-05-16T09:27:46.094Z,3.6
2023-05-16T09:43:20.311Z,3.6
2023-05-16T09:58:54.525Z,3.6
2023-05-16T10:14:30.562Z,4.7
2023-05-16T10:30:18.552Z,7.5
2023-05-16T10:45:53.634Z,5.7
2023-05-16T11:01:28.296Z,4.3
2023-05-16T11:17:04.031Z,3
2023-05-16T11:32:38.657Z,3
2023-05-16T11:48:19.139Z,2.2
2023-05-16T12:04:10.695Z,2.3
2023-05-16T12:19:45.920Z,2.1
2023-05-16T12:35:20.191Z,1.9
2023-05-16T12:50:55.140Z,2.8
2023-05-16T13:06:34.588Z,2.5
2023-05-16T13:22:33.755Z,2.9
2023-05-16T13:38:08.282Z,2.2
2023-05-16T13:53:42.939Z,2.3
2023-05-16T14:09:17.591Z,1.5
2023-05-16T14:24:52.085Z,1.2
2023-05-16T14:40:26.788Z,1
2023-05-16T14:56:01.333Z,1.8
2023-05-16T15:11:36.324Z,2.2
2023-05-16T15:27:11.173Z,1.7
2023-05-16T15:42:45.650Z,1.5
2023-05-16T15:58:22.018Z,1
2023-05-16T16:13:57.624Z,1.1
2023-05-16T16:29:32.647Z,0.9
2023-05-16T16:45:07.410Z,1
2023-05-16T17:00:42.160Z,2
2023-05-16T17:16:16.973Z,1
2023-05-16T17:31:51.977Z,0.9
2023-05-16T17:47:26.482Z,0.9
2023-05-16T18:03:04.406Z,1.2
2023-05-16T18:18:39.203Z,0.9
2023-05-16T18:34:14.160Z,1
2023-05-16T18:49:48.642Z,0.8
2023-05-16T19:05:27.324Z,0.8
2023-05-16T19:21:03.529Z,1.2
2023-05-16T19:36:38.305Z,1.4
2023-05-16T19:52:12.957Z,1
2023-05-16T20:07:47.643Z,1
2023-05-16T20:23:22.358Z,1.1
2023-05-16T20:38:56.907Z,1.1
2023-05-16T20:54:31.393Z,1.4
2023-05-16T21:10:05.654Z,0.9
2023-05-16T21:25:40.108Z,1.2
2023-05-16T21:41:14.682Z,1.1
2023-05-16T21:56:49.240Z,1.3
2023-05-16T22:12:23.574Z,1
2023-05-16T22:27:58.036Z,1
2023-05-16T22:43:32.609Z,1.5
2023-05-16T22:59:07.247Z,1.5
2023-05-16T23:14:41.759Z,1
2023-05-16T23:30:16.241Z,2.7
2023-05-16T23:45:50.800Z,1.4
